sensor_id;sensor_type;location;lat;lon;timestamp;pressure;altitude;pressure_sealevel;temperature
76009;BMP280;64700;52.130;21.270;2023-04-25T00:00:45;99345.53;;;21.39
76009;BMP280;64700;52.130;21.270;2023-04-25T00:03:10;99348.72;;;21.37
76009;BMP280;64700;52.130;21.270;2023-04-25T00:05:35;99355.91;;;21.40
76009;BMP280;64700;52.130;21.270;2023-04-25T00:08:02;99347.97;;;21.48
76009;BMP280;64700;52.130;21.270;2023-04-25T00:10:27;99356.13;;;21.48
76009;BMP280;64700;52.130;21.270;2023-04-25T00:12:52;99338.59;;;21.38
76009;BMP280;64700;52.130;21.270;2023-04-25T00:15:18;99345.75;;;21.35
76009;BMP280;64700;52.130;21.270;2023-04-25T00:17:43;99355.41;;;21.30
76009;BMP280;64700;52.130;21.270;2023-04-25T00:20:10;99353.91;;;21.29
76009;BMP280;64700;52.130;21.270;2023-04-25T00:22:36;99348.97;;;21.28
76009;BMP280;64700;52.130;21.270;2023-04-25T00:25:03;99348.47;;;21.29
76009;BMP280;64700;52.130;21.270;2023-04-25T00:27:28;99348.97;;;21.33
76009;BMP280;64700;52.130;21.270;2023-04-25T00:29:53;99350.97;;;21.39
76009;BMP280;64700;52.130;21.270;2023-04-25T00:32:18;99349.47;;;21.43
76009;BMP280;64700;52.130;21.270;2023-04-25T00:34:44;99343.28;;;21.37
76009;BMP280;64700;52.130;21.270;2023-04-25T00:37:09;99343.53;;;21.33
76009;BMP280;64700;52.130;21.270;2023-04-25T00:39:35;99343.78;;;21.30
76009;BMP280;64700;52.130;21.270;2023-04-25T00:42:00;99343.78;;;21.30
76009;BMP280;64700;52.130;21.270;2023-04-25T00:44:26;99335.63;;;21.30
76009;BMP280;64700;52.130;21.270;2023-04-25T00:46:52;99335.63;;;21.41
76009;BMP280;64700;52.130;21.270;2023-04-25T00:49:18;99337.34;;;21.44
76009;BMP280;64700;52.130;21.270;2023-04-25T00:51:43;99331.16;;;21.44
76009;BMP280;64700;52.130;21.270;2023-04-25T00:54:10;99327.44;;;21.36
76009;BMP280;64700;52.130;21.270;2023-04-25T00:56:35;99323.00;;;21.32
76009;BMP280;64700;52.130;21.270;2023-04-25T00:59:00;99324.00;;;21.29
76009;BMP280;64700;52.130;21.270;2023-04-25T01:01:26;99323.75;;;21.27
76009;BMP280;64700;52.130;21.270;2023-04-25T01:03:51;99328.47;;;21.27
76009;BMP280;64700;52.130;21.270;2023-04-25T01:06:18;99338.59;;;21.26
76009;BMP280;64700;52.130;21.270;2023-04-25T01:08:43;99334.88;;;21.24
76009;BMP280;64700;52.130;21.270;2023-04-25T01:11:08;99338.88;;;21.23
76009;BMP280;64700;52.130;21.270;2023-04-25T01:13:34;99339.09;;;21.30
76009;BMP280;64700;52.130;21.270;2023-04-25T01:16:00;99343.56;;;21.39
76009;BMP280;64700;52.130;21.270;2023-04-25T01:18:25;99340.06;;;21.33
76009;BMP280;64700;52.130;21.270;2023-04-25T01:20:51;99325.75;;;21.27
76009;BMP280;64700;52.130;21.270;2023-04-25T01:23:16;99320.56;;;21.23
76009;BMP280;64700;52.130;21.270;2023-04-25T01:25:41;99322.56;;;21.23
76009;BMP280;64700;52.130;21.270;2023-04-25T01:28:06;99314.38;;;21.17
76009;BMP280;64700;52.130;21.270;2023-04-25T01:30:32;99310.91;;;21.17
76009;BMP280;64700;52.130;21.270;2023-04-25T01:32:57;99310.69;;;21.15
76009;BMP280;64700;52.130;21.270;2023-04-25T01:35:23;99305.47;;;21.11
76009;BMP280;64700;52.130;21.270;2023-04-25T01:37:50;99311.16;;;21.13
76009;BMP280;64700;52.130;21.270;2023-04-25T01:40:15;99306.47;;;21.25
76009;BMP280;64700;52.130;21.270;2023-04-25T01:42:42;99311.16;;;21.19
76009;BMP280;64700;52.130;21.270;2023-04-25T01:45:08;99309.69;;;21.18
76009;BMP280;64700;52.130;21.270;2023-04-25T01:47:34;99312.66;;;21.14
76009;BMP280;64700;52.130;21.270;2023-04-25T01:50:02;99309.19;;;21.14
76009;BMP280;64700;52.130;21.270;2023-04-25T01:52:28;99309.19;;;21.14
76009;BMP280;64700;52.130;21.270;2023-04-25T01:54:53;99309.19;;;21.14
76009;BMP280;64700;52.130;21.270;2023-04-25T01:57:19;99300.03;;;21.11
76009;BMP280;64700;52.130;21.270;2023-04-25T01:59:44;99306.97;;;21.12
76009;BMP280;64700;52.130;21.270;2023-04-25T02:02:10;99304.00;;;21.10
76009;BMP280;64700;52.130;21.270;2023-04-25T02:04:35;99307.22;;;21.09
76009;BMP280;64700;52.130;21.270;2023-04-25T02:07:00;99304.25;;;21.07
76009;BMP280;64700;52.130;21.270;2023-04-25T02:09:25;99304.94;;;21.07
76009;BMP280;64700;52.130;21.270;2023-04-25T02:11:51;99307.22;;;21.09
76009;BMP280;64700;52.130;21.270;2023-04-25T02:14:16;99307.97;;;21.09
76009;BMP280;64700;52.130;21.270;2023-04-25T02:16:41;99303.00;;;21.08
76009;BMP280;64700;52.130;21.270;2023-04-25T02:19:08;99298.31;;;21.08
76009;BMP280;64700;52.130;21.270;2023-04-25T02:21:34;99305.72;;;21.08
76009;BMP280;64700;52.130;21.270;2023-04-25T02:24:00;99307.66;;;21.07
76009;BMP280;64700;52.130;21.270;2023-04-25T02:26:27;99301.03;;;21.08
76009;BMP280;64700;52.130;21.270;2023-04-25T02:28:52;99309.19;;;21.08
76009;BMP280;64700;52.130;21.270;2023-04-25T02:31:17;99310.16;;;21.05
76009;BMP280;64700;52.130;21.270;2023-04-25T02:33:42;99311.66;;;21.06
76009;BMP280;64700;52.130;21.270;2023-04-25T02:36:08;99305.72;;;21.08
76009;BMP280;64700;52.130;21.270;2023-04-25T02:38:33;99298.06;;;21.12
76009;BMP280;64700;52.130;21.270;2023-04-25T02:40:59;99304.75;;;21.11
76009;BMP280;64700;52.130;21.270;2023-04-25T02:43:24;99303.00;;;21.08
76009;BMP280;64700;52.130;21.270;2023-04-25T02:45:50;99307.66;;;21.07
76009;BMP280;64700;52.130;21.270;2023-04-25T02:48:15;99308.69;;;21.10
76009;BMP280;64700;52.130;21.270;2023-04-25T02:50:40;99304.94;;;21.07
76009;BMP280;64700;52.130;21.270;2023-04-25T02:53:05;99302.75;;;21.11
76009;BMP280;64700;52.130;21.270;2023-04-25T02:55:30;99307.22;;;21.09
76009;BMP280;64700;52.130;21.270;2023-04-25T02:57:55;99301.78;;;21.09
76009;BMP280;64700;52.130;21.270;2023-04-25T03:00:21;99304.25;;;21.07
76009;BMP280;64700;52.130;21.270;2023-04-25T03:02:47;99300.28;;;21.08
76009;BMP280;64700;52.130;21.270;2023-04-25T03:05:12;99289.91;;;21.06
76009;BMP280;64700;52.130;21.270;2023-04-25T03:07:37;99291.13;;;21.05
76009;BMP280;64700;52.130;21.270;2023-04-25T03:10:04;99296.09;;;21.07
76009;BMP280;64700;52.130;21.270;2023-04-25T03:12:30;99294.84;;;21.08
76009;BMP280;64700;52.130;21.270;2023-04-25T03:14:55;99295.34;;;21.06
76009;BMP280;64700;52.130;21.270;2023-04-25T03:17:21;99306.22;;;21.06
76009;BMP280;64700;52.130;21.270;2023-04-25T03:19:46;99293.63;;;21.09
76009;BMP280;64700;52.130;21.270;2023-04-25T03:22:11;99303.25;;;21.15
76009;BMP280;64700;52.130;21.270;2023-04-25T03:24:36;99304.25;;;21.07
76009;BMP280;64700;52.130;21.270;2023-04-25T03:27:02;99303.97;;;21.05
76009;BMP280;64700;52.130;21.270;2023-04-25T03:29:27;99299.03;;;21.03
76009;BMP280;64700;52.130;21.270;2023-04-25T03:31:53;99301.53;;;21.01
76009;BMP280;64700;52.130;21.270;2023-04-25T03:34:18;99298.81;;;21.01
76009;BMP280;64700;52.130;21.270;2023-04-25T03:36:44;99306.22;;;21.01
76009;BMP280;64700;52.130;21.270;2023-04-25T03:39:09;99306.94;;;21.01
76009;BMP280;64700;52.130;21.270;2023-04-25T03:41:34;99313.88;;;21.02
76009;BMP280;64700;52.130;21.270;2023-04-25T03:44:01;99313.63;;;21.00
76009;BMP280;64700;52.130;21.270;2023-04-25T03:46:26;99313.88;;;21.02
76009;BMP280;64700;52.130;21.270;2023-04-25T03:48:51;99318.09;;;21.14
76009;BMP280;64700;52.130;21.270;2023-04-25T03:51:16;99315.09;;;21.07
76009;BMP280;64700;52.130;21.270;2023-04-25T03:53:41;99322.25;;;21.04
76009;BMP280;64700;52.130;21.270;2023-04-25T03:56:07;99319.53;;;21.04
76009;BMP280;64700;52.130;21.270;2023-04-25T03:58:32;99317.09;;;21.06
76009;BMP280;64700;52.130;21.270;2023-04-25T04:00:57;99313.63;;;21.06
76009;BMP280;64700;52.130;21.270;2023-04-25T04:03:22;99314.38;;;21.06
76009;BMP280;64700;52.130;21.270;2023-04-25T04:05:47;99314.63;;;21.03
76009;BMP280;64700;52.130;21.270;2023-04-25T04:08:13;99323.25;;;21.07
76009;BMP280;64700;52.130;21.270;2023-04-25T04:10:38;99324.22;;;21.04
76009;BMP280;64700;52.130;21.270;2023-04-25T04:13:03;99328.91;;;21.03
76009;BMP280;64700;52.130;21.270;2023-04-25T04:15:28;99333.66;;;21.03
76009;BMP280;64700;52.130;21.270;2023-04-25T04:17:53;99330.41;;;21.04
76009;BMP280;64700;52.130;21.270;2023-04-25T04:20:19;99340.06;;;21.05
76009;BMP280;64700;52.130;21.270;2023-04-25T04:22:44;99335.34;;;21.06
76009;BMP280;64700;52.130;21.270;2023-04-25T04:25:10;99343.50;;;21.06
76009;BMP280;64700;52.130;21.270;2023-04-25T04:27:36;99341.81;;;21.08
76009;BMP280;64700;52.130;21.270;2023-04-25T04:30:02;99343.00;;;21.07
76009;BMP280;64700;52.130;21.270;2023-04-25T04:32:28;99348.22;;;21.05
76009;BMP280;64700;52.130;21.270;2023-04-25T04:34:55;99344.78;;;21.10
76009;BMP280;64700;52.130;21.270;2023-04-25T04:37:20;99348.47;;;21.29
76009;BMP280;64700;52.130;21.270;2023-04-25T04:39:46;99350.69;;;21.37
76009;BMP280;64700;52.130;21.270;2023-04-25T04:42:11;99347.72;;;21.29
76009;BMP280;64700;52.130;21.270;2023-04-25T04:44:37;99350.19;;;21.16
76009;BMP280;64700;52.130;21.270;2023-04-25T04:47:03;99355.38;;;21.19
76009;BMP280;64700;52.130;21.270;2023-04-25T04:49:31;99347.50;;;21.27
76009;BMP280;64700;52.130;21.270;2023-04-25T04:51:56;99350.72;;;21.25
76009;BMP280;64700;52.130;21.270;2023-04-25T04:54:21;99351.44;;;21.26
76009;BMP280;64700;52.130;21.270;2023-04-25T04:56:46;99351.19;;;21.35
76009;BMP280;64700;52.130;21.270;2023-04-25T04:59:12;99350.22;;;21.38
76009;BMP280;64700;52.130;21.270;2023-04-25T05:01:37;99344.00;;;21.49
76009;BMP280;64700;52.130;21.270;2023-04-25T05:04:02;99345.72;;;21.52
76009;BMP280;64700;52.130;21.270;2023-04-25T05:06:28;99348.47;;;21.46
76009;BMP280;64700;52.130;21.270;2023-04-25T05:08:57;99338.09;;;21.33
76009;BMP280;64700;52.130;21.270;2023-04-25T05:11:22;99336.38;;;21.30
76009;BMP280;64700;52.130;21.270;2023-04-25T05:13:48;99334.88;;;21.35
76009;BMP280;64700;52.130;21.270;2023-04-25T05:16:13;99345.25;;;21.37
76009;BMP280;64700;52.130;21.270;2023-04-25T05:18:39;99338.84;;;21.34
76009;BMP280;64700;52.130;21.270;2023-04-25T05:21:04;99346.00;;;21.31
76009;BMP280;64700;52.130;21.270;2023-04-25T05:23:30;99342.31;;;21.29
76009;BMP280;64700;52.130;21.270;2023-04-25T05:25:55;99351.94;;;21.30
76009;BMP280;64700;52.130;21.270;2023-04-25T05:28:21;99338.84;;;21.28
76009;BMP280;64700;52.130;21.270;2023-04-25T05:30:46;99343.78;;;21.24
76009;BMP280;64700;52.130;21.270;2023-04-25T05:33:11;99347.25;;;21.25
76009;BMP280;64700;52.130;21.270;2023-04-25T05:35:36;99351.72;;;21.22
76009;BMP280;64700;52.130;21.270;2023-04-25T05:38:01;99344.50;;;21.19
76009;BMP280;64700;52.130;21.270;2023-04-25T05:40:27;99343.53;;;21.17
76009;BMP280;64700;52.130;21.270;2023-04-25T05:42:52;99340.06;;;21.16
76009;BMP280;64700;52.130;21.270;2023-04-25T05:45:17;99354.66;;;21.19
76009;BMP280;64700;52.130;21.270;2023-04-25T05:47:42;99347.00;;;21.17
76009;BMP280;64700;52.130;21.270;2023-04-25T05:50:08;99355.16;;;21.17
76009;BMP280;64700;52.130;21.270;2023-04-25T05:52:33;99346.72;;;21.21
76009;BMP280;64700;52.130;21.270;2023-04-25T05:54:58;99347.22;;;21.19
76009;BMP280;64700;52.130;21.270;2023-04-25T05:57:24;99355.88;;;21.18
76009;BMP280;64700;52.130;21.270;2023-04-25T05:59:50;99362.81;;;21.19
76009;BMP280;64700;52.130;21.270;2023-04-25T06:02:15;99354.16;;;21.20
76009;BMP280;64700;52.130;21.270;2023-04-25T06:04:41;99352.91;;;21.21
76009;BMP280;64700;52.130;21.270;2023-04-25T06:07:06;99359.56;;;21.20
76009;BMP280;64700;52.130;21.270;2023-04-25T06:09:31;99362.06;;;21.18
76009;BMP280;64700;52.130;21.270;2023-04-25T06:11:56;99363.03;;;21.21
76009;BMP280;64700;52.130;21.270;2023-04-25T06:14:21;99368.25;;;21.19
76009;BMP280;64700;52.130;21.270;2023-04-25T06:16:47;99375.16;;;21.20
76009;BMP280;64700;52.130;21.270;2023-04-25T06:19:12;99378.13;;;21.22
76009;BMP280;64700;52.130;21.270;2023-04-25T06:21:37;99381.09;;;21.18
76009;BMP280;64700;52.130;21.270;2023-04-25T06:24:02;99390.47;;;21.17
76009;BMP280;64700;52.130;21.270;2023-04-25T06:26:27;99390.97;;;21.16
76009;BMP280;64700;52.130;21.270;2023-04-25T06:28:53;99388.25;;;21.16
76009;BMP280;64700;52.130;21.270;2023-04-25T06:31:18;99397.16;;;21.16
76009;BMP280;64700;52.130;21.270;2023-04-25T06:33:43;99393.69;;;21.16
76009;BMP280;64700;52.130;21.270;2023-04-25T06:36:08;99396.66;;;21.12
76009;BMP280;64700;52.130;21.270;2023-04-25T06:38:34;99383.56;;;21.16
76009;BMP280;64700;52.130;21.270;2023-04-25T06:41:00;99385.53;;;21.16
76009;BMP280;64700;52.130;21.270;2023-04-25T06:43:25;99393.69;;;21.16
76009;BMP280;64700;52.130;21.270;2023-04-25T06:45:51;99401.09;;;21.15
76009;BMP280;64700;52.130;21.270;2023-04-25T06:48:16;99393.44;;;21.14
76009;BMP280;64700;52.130;21.270;2023-04-25T06:50:41;99396.16;;;21.14
76009;BMP280;64700;52.130;21.270;2023-04-25T06:53:06;99393.94;;;21.12
76009;BMP280;64700;52.130;21.270;2023-04-25T06:55:33;99390.72;;;21.14
76009;BMP280;64700;52.130;21.270;2023-04-25T06:57:59;99391.97;;;21.13
76009;BMP280;64700;52.130;21.270;2023-04-25T07:00:24;99395.44;;;21.13
76009;BMP280;64700;52.130;21.270;2023-04-25T07:02:50;99386.03;;;21.14
76009;BMP280;64700;52.130;21.270;2023-04-25T07:05:15;99386.03;;;21.14
76009;BMP280;64700;52.130;21.270;2023-04-25T07:07:41;99385.53;;;21.16
76009;BMP280;64700;52.130;21.270;2023-04-25T07:10:07;99380.84;;;21.16
76009;BMP280;64700;52.130;21.270;2023-04-25T07:12:32;99390.97;;;21.16
76009;BMP280;64700;52.130;21.270;2023-04-25T07:14:58;99392.19;;;21.20
76009;BMP280;64700;52.130;21.270;2023-04-25T07:17:23;99390.00;;;21.19
76009;BMP280;64700;52.130;21.270;2023-04-25T07:19:48;99390.47;;;21.17
76009;BMP280;64700;52.130;21.270;2023-04-25T07:22:14;99391.44;;;21.20
76009;BMP280;64700;52.130;21.270;2023-04-25T07:24:39;99389.00;;;21.16
76009;BMP280;64700;52.130;21.270;2023-04-25T07:27:04;99390.22;;;21.15
76009;BMP280;64700;52.130;21.270;2023-04-25T07:29:29;99388.50;;;21.18
76009;BMP280;64700;52.130;21.270;2023-04-25T07:31:55;99400.34;;;21.20
76009;BMP280;64700;52.130;21.270;2023-04-25T07:34:20;99393.69;;;21.16
76009;BMP280;64700;52.130;21.270;2023-04-25T07:36:45;99397.88;;;21.17
76009;BMP280;64700;52.130;21.270;2023-04-25T07:39:11;99406.31;;;21.19
76009;BMP280;64700;52.130;21.270;2023-04-25T07:41:36;99413.47;;;21.22
76009;BMP280;64700;52.130;21.270;2023-04-25T07:44:02;99411.97;;;21.21
76009;BMP280;64700;52.130;21.270;2023-04-25T07:46:27;99405.56;;;21.24
76009;BMP280;64700;52.130;21.270;2023-04-25T07:48:52;99407.53;;;21.23
76009;BMP280;64700;52.130;21.270;2023-04-25T07:51:17;99412.75;;;21.27
76009;BMP280;64700;52.130;21.270;2023-04-25T07:53:44;99412.75;;;21.27
76009;BMP280;64700;52.130;21.270;2023-04-25T07:56:10;99404.59;;;21.27
76009;BMP280;64700;52.130;21.270;2023-04-25T07:58:35;99405.81;;;21.26
76009;BMP280;64700;52.130;21.270;2023-04-25T08:01:00;99409.53;;;21.28
76009;BMP280;64700;52.130;21.270;2023-04-25T08:03:26;99415.47;;;21.27
76009;BMP280;64700;52.130;21.270;2023-04-25T08:05:51;99417.19;;;21.24
76009;BMP280;64700;52.130;21.270;2023-04-25T08:08:16;99418.41;;;21.29
76009;BMP280;64700;52.130;21.270;2023-04-25T08:10:41;99420.91;;;21.27
76009;BMP280;64700;52.130;21.270;2023-04-25T08:13:07;99415.72;;;21.29
76009;BMP280;64700;52.130;21.270;2023-04-25T08:15:32;99418.91;;;21.33
76009;BMP280;64700;52.130;21.270;2023-04-25T08:17:57;99420.91;;;21.38
76009;BMP280;64700;52.130;21.270;2023-04-25T08:20:22;99417.47;;;21.38
76009;BMP280;64700;52.130;21.270;2023-04-25T08:22:48;99419.69;;;21.39
76009;BMP280;64700;52.130;21.270;2023-04-25T08:25:14;99416.69;;;21.37
76009;BMP280;64700;52.130;21.270;2023-04-25T08:27:39;99420.91;;;21.38
76009;BMP280;64700;52.130;21.270;2023-04-25T08:30:04;99420.41;;;21.40
76009;BMP280;64700;52.130;21.270;2023-04-25T08:32:30;99427.84;;;21.39
76009;BMP280;64700;52.130;21.270;2023-04-25T08:34:55;99428.34;;;21.38
76009;BMP280;64700;52.130;21.270;2023-04-25T08:37:21;99428.03;;;21.36
76009;BMP280;64700;52.130;21.270;2023-04-25T08:39:47;99433.28;;;21.39
76009;BMP280;64700;52.130;21.270;2023-04-25T08:42:17;99443.88;;;21.37
76009;BMP280;64700;52.130;21.270;2023-04-25T08:44:42;99441.16;;;21.31
76009;BMP280;64700;52.130;21.270;2023-04-25T08:47:08;99435.97;;;21.28
76009;BMP280;64700;52.130;21.270;2023-04-25T08:49:34;99443.63;;;21.24
76009;BMP280;64700;52.130;21.270;2023-04-25T08:52:00;99442.63;;;21.21
76009;BMP280;64700;52.130;21.270;2023-04-25T08:54:27;99442.88;;;21.23
76009;BMP280;64700;52.130;21.270;2023-04-25T08:56:54;99453.03;;;21.23
76009;BMP280;64700;52.130;21.270;2023-04-25T08:59:19;99458.22;;;21.26
76009;BMP280;64700;52.130;21.270;2023-04-25T09:01:47;99453.03;;;21.23
76009;BMP280;64700;52.130;21.270;2023-04-25T09:04:14;99465.13;;;21.22
76009;BMP280;64700;52.130;21.270;2023-04-25T09:06:39;99465.59;;;21.20
76009;BMP280;64700;52.130;21.270;2023-04-25T09:09:06;99477.75;;;21.25
76009;BMP280;64700;52.130;21.270;2023-04-25T09:11:32;99477.00;;;21.24
76009;BMP280;64700;52.130;21.270;2023-04-25T09:14:14;99490.84;;;21.26
76009;BMP280;64700;52.130;21.270;2023-04-25T09:21:51;99490.84;;;21.26
76009;BMP280;64700;52.130;21.270;2023-04-25T09:24:29;99489.13;;;21.29
76009;BMP280;64700;52.130;21.270;2023-04-25T09:26:55;99494.31;;;21.27
76009;BMP280;64700;52.130;21.270;2023-04-25T09:29:20;99499.75;;;21.27
76009;BMP280;64700;52.130;21.270;2023-04-25T09:31:53;99492.56;;;21.24
76009;BMP280;64700;52.130;21.270;2023-04-25T09:34:29;99496.78;;;21.25
76009;BMP280;64700;52.130;21.270;2023-04-25T09:37:01;99490.59;;;21.24
76009;BMP280;64700;52.130;21.270;2023-04-25T09:39:28;99487.63;;;21.22
76009;BMP280;64700;52.130;21.270;2023-04-25T09:41:53;99483.38;;;21.16
76009;BMP280;64700;52.130;21.270;2023-04-25T09:44:22;99484.41;;;21.18
76009;BMP280;64700;52.130;21.270;2023-04-25T09:46:49;99482.63;;;21.15
76009;BMP280;64700;52.130;21.270;2023-04-25T09:49:19;99495.28;;;21.24
76009;BMP280;64700;52.130;21.270;2023-04-25T09:51:53;99498.22;;;21.20
76009;BMP280;64700;52.130;21.270;2023-04-25T09:54:18;99501.22;;;21.22
76009;BMP280;64700;52.130;21.270;2023-04-25T09:56:43;99501.22;;;21.22
76009;BMP280;64700;52.130;21.270;2023-04-25T09:59:10;99502.44;;;21.21
76009;BMP280;64700;52.130;21.270;2023-04-25T10:01:36;99506.88;;;21.19
76009;BMP280;64700;52.130;21.270;2023-04-25T10:04:04;99509.09;;;21.20
76009;BMP280;64700;52.130;21.270;2023-04-25T10:06:31;99500.94;;;21.20
76009;BMP280;64700;52.130;21.270;2023-04-25T10:08:59;99509.59;;;21.19
76009;BMP280;64700;52.130;21.270;2023-04-25T10:11:25;99506.38;;;21.20
76009;BMP280;64700;52.130;21.270;2023-04-25T10:13:51;99514.53;;;21.20
76009;BMP280;64700;52.130;21.270;2023-04-25T10:16:16;99515.28;;;21.21
76009;BMP280;64700;52.130;21.270;2023-04-25T10:18:41;99517.97;;;21.15
76009;BMP280;64700;52.130;21.270;2023-04-25T10:21:06;99516.28;;;21.18
76009;BMP280;64700;52.130;21.270;2023-04-25T10:23:32;99513.28;;;21.16
76009;BMP280;64700;52.130;21.270;2023-04-25T10:26:01;99519.22;;;21.14
76009;BMP280;64700;52.130;21.270;2023-04-25T10:28:27;99519.47;;;21.22
76009;BMP280;64700;52.130;21.270;2023-04-25T10:31:00;99506.38;;;21.15
76009;BMP280;64700;52.130;21.270;2023-04-25T10:33:29;99514.28;;;21.18
76009;BMP280;64700;52.130;21.270;2023-04-25T10:35:57;99512.06;;;21.17
76009;BMP280;64700;52.130;21.270;2023-04-25T10:38:23;99514.28;;;21.18
76009;BMP280;64700;52.130;21.270;2023-04-25T10:41:04;99508.34;;;21.20
76009;BMP280;64700;52.130;21.270;2023-04-25T10:43:36;99508.13;;;21.18
76009;BMP280;64700;52.130;21.270;2023-04-25T10:46:24;99508.13;;;21.18
76009;BMP280;64700;52.130;21.270;2023-04-25T10:48:50;99515.25;;;21.15
76009;BMP280;64700;52.130;21.270;2023-04-25T10:51:23;99514.03;;;21.16
76009;BMP280;64700;52.130;21.270;2023-04-25T10:56:20;99512.81;;;21.17
76009;BMP280;64700;52.130;21.270;2023-04-25T10:58:46;99514.28;;;21.18
76009;BMP280;64700;52.130;21.270;2023-04-25T11:01:12;99514.31;;;21.24
76009;BMP280;64700;52.130;21.270;2023-04-25T11:03:39;99517.50;;;21.17
76009;BMP280;64700;52.130;21.270;2023-04-25T11:06:05;99519.22;;;21.14
76009;BMP280;64700;52.130;21.270;2023-04-25T11:08:38;99518.47;;;21.14
76009;BMP280;64700;52.130;21.270;2023-04-25T11:11:09;99529.09;;;21.12
76009;BMP280;64700;52.130;21.270;2023-04-25T11:13:34;99522.91;;;21.11
76009;BMP280;64700;52.130;21.270;2023-04-25T11:15:59;99523.19;;;21.13
76009;BMP280;64700;52.130;21.270;2023-04-25T11:18:26;99513.53;;;21.12
76009;BMP280;64700;52.130;21.270;2023-04-25T11:20:51;99512.03;;;21.11
76009;BMP280;64700;52.130;21.270;2023-04-25T11:23:16;99511.31;;;21.11
76009;BMP280;64700;52.130;21.270;2023-04-25T11:25:42;99517.00;;;21.13
76009;BMP280;64700;52.130;21.270;2023-04-25T11:28:07;99513.78;;;21.09
76009;BMP280;64700;52.130;21.270;2023-04-25T11:30:32;99517.72;;;21.08
76009;BMP280;64700;52.130;21.270;2023-04-25T11:32:57;99526.13;;;21.10
76009;BMP280;64700;52.130;21.270;2023-04-25T11:35:23;99524.41;;;21.12
76009;BMP280;64700;52.130;21.270;2023-04-25T11:37:50;99526.88;;;21.10
76009;BMP280;64700;52.130;21.270;2023-04-25T11:40:15;99519.22;;;21.09
76009;BMP280;64700;52.130;21.270;2023-04-25T11:42:45;99524.38;;;21.07
76009;BMP280;64700;52.130;21.270;2023-04-25T11:45:10;99521.66;;;21.07
76009;BMP280;64700;52.130;21.270;2023-04-25T11:47:35;99523.63;;;21.06
76009;BMP280;64700;52.130;21.270;2023-04-25T11:50:01;99517.72;;;21.08
76009;BMP280;64700;52.130;21.270;2023-04-25T11:52:37;99519.22;;;21.09
76009;BMP280;64700;52.130;21.270;2023-04-25T11:55:06;99529.59;;;21.10
76009;BMP280;64700;52.130;21.270;2023-04-25T11:57:32;99523.91;;;21.08
76009;BMP280;64700;52.130;21.270;2023-04-25T12:00:10;99523.63;;;21.06
76009;BMP280;64700;52.130;21.270;2023-04-25T12:02:36;99520.91;;;21.06
76009;BMP280;64700;52.130;21.270;2023-04-25T12:05:01;99522.38;;;21.07
76009;BMP280;64700;52.130;21.270;2023-04-25T12:07:31;99525.09;;;21.07
76009;BMP280;64700;52.130;21.270;2023-04-25T12:09:56;99518.19;;;21.06
76009;BMP280;64700;52.130;21.270;2023-04-25T12:12:21;99509.03;;;20.98
76009;BMP280;64700;52.130;21.270;2023-04-25T12:14:47;99512.75;;;21.06
76009;BMP280;64700;52.130;21.270;2023-04-25T12:17:13;99509.56;;;21.08
76009;BMP280;64700;52.130;21.270;2023-04-25T12:19:38;99516.22;;;21.07
76009;BMP280;64700;52.130;21.270;2023-04-25T12:22:21;99508.06;;;21.07
76009;BMP280;64700;52.130;21.270;2023-04-25T12:24:47;99510.56;;;21.10
76009;BMP280;64700;52.130;21.270;2023-04-25T12:27:14;99509.84;;;21.10
76009;BMP280;64700;52.130;21.270;2023-04-25T12:29:50;99510.56;;;21.10
76009;BMP280;64700;52.130;21.270;2023-04-25T12:32:16;99517.47;;;21.11
76009;BMP280;64700;52.130;21.270;2023-04-25T12:34:41;99511.81;;;21.09
76009;BMP280;64700;52.130;21.270;2023-04-25T12:37:07;99511.81;;;21.09
76009;BMP280;64700;52.130;21.270;2023-04-25T12:39:32;99501.41;;;21.08
76009;BMP280;64700;52.130;21.270;2023-04-25T12:41:57;99504.41;;;21.10
76009;BMP280;64700;52.130;21.270;2023-04-25T12:44:24;99506.84;;;21.08
76009;BMP280;64700;52.130;21.270;2023-04-25T12:46:49;99504.88;;;21.08
76009;BMP280;64700;52.130;21.270;2023-04-25T12:49:15;99500.19;;;21.09
76009;BMP280;64700;52.130;21.270;2023-04-25T12:51:40;99499.19;;;21.12
76009;BMP280;64700;52.130;21.270;2023-04-25T12:54:06;99501.16;;;21.11
76009;BMP280;64700;52.130;21.270;2023-04-25T12:56:32;99495.25;;;21.13
76009;BMP280;64700;52.130;21.270;2023-04-25T12:58:57;99498.72;;;21.13
76009;BMP280;64700;52.130;21.270;2023-04-25T13:01:23;99491.31;;;21.14
76009;BMP280;64700;52.130;21.270;2023-04-25T13:03:48;99490.06;;;21.15
76009;BMP280;64700;52.130;21.270;2023-04-25T13:06:17;99496.22;;;21.15
76009;BMP280;64700;52.130;21.270;2023-04-25T13:08:42;99486.63;;;21.14
76009;BMP280;64700;52.130;21.270;2023-04-25T13:11:08;99488.59;;;21.14
76009;BMP280;64700;52.130;21.270;2023-04-25T13:13:33;99486.34;;;21.12
76009;BMP280;64700;52.130;21.270;2023-04-25T13:16:02;99482.41;;;21.13
76009;BMP280;64700;52.130;21.270;2023-04-25T13:18:28;99485.59;;;21.12
76009;BMP280;64700;52.130;21.270;2023-04-25T13:20:53;99487.56;;;21.11
76009;BMP280;64700;52.130;21.270;2023-04-25T13:23:19;99486.84;;;21.11
76009;BMP280;64700;52.130;21.270;2023-04-25T13:25:45;99490.06;;;21.09
76009;BMP280;64700;52.130;21.270;2023-04-25T13:28:10;99483.63;;;21.07
76009;BMP280;64700;52.130;21.270;2023-04-25T13:30:35;99485.59;;;21.06
76009;BMP280;64700;52.130;21.270;2023-04-25T13:33:01;99480.91;;;21.07
76009;BMP280;64700;52.130;21.270;2023-04-25T13:35:28;99484.56;;;21.04
76009;BMP280;64700;52.130;21.270;2023-04-25T13:37:53;99480.16;;;21.12
76009;BMP280;64700;52.130;21.270;2023-04-25T13:40:18;99475.47;;;21.07
76009;BMP280;64700;52.130;21.270;2023-04-25T13:42:44;99478.19;;;21.12
76009;BMP280;64700;52.130;21.270;2023-04-25T13:45:10;99479.94;;;21.21
76009;BMP280;64700;52.130;21.270;2023-04-25T13:47:35;99478.22;;;21.23
76009;BMP280;64700;52.130;21.270;2023-04-25T13:50:00;99478.25;;;21.29
76009;BMP280;64700;52.130;21.270;2023-04-25T13:52:28;99475.03;;;21.36
76009;BMP280;64700;52.130;21.270;2023-04-25T13:54:53;99478.25;;;21.29
76009;BMP280;64700;52.130;21.270;2023-04-25T13:57:18;99486.38;;;21.18